sensor_id;sensor_type;location;lat;lon;timestamp;temperature;humidity
68867;SHT30;56451;44.804;20.476;2023-06-14T00:00:59;21.36;53.22
68867;SHT30;56451;44.804;20.476;2023-06-14T00:03:25;21.34;53.54
68867;SHT30;56451;44.804;20.476;2023-06-14T00:05:51;21.33;53.77
68867;SHT30;56451;44.804;20.476;2023-06-14T00:08:17;21.34;53.90
68867;SHT30;56451;44.804;20.476;2023-06-14T00:10:44;21.33;54.08
68867;SHT30;56451;44.804;20.476;2023-06-14T00:13:10;21.33;54.15
68867;SHT30;56451;44.804;20.476;2023-06-14T00:15:37;21.33;54.31
68867;SHT30;56451;44.804;20.476;2023-06-14T00:18:04;21.30;54.63
68867;SHT30;56451;44.804;20.476;2023-06-14T00:20:32;21.29;54.85
68867;SHT30;56451;44.804;20.476;2023-06-14T00:22:59;21.27;55.02
68867;SHT30;56451;44.804;20.476;2023-06-14T00:25:26;21.29;54.95
68867;SHT30;56451;44.804;20.476;2023-06-14T00:27:53;21.23;54.81
68867;SHT30;56451;44.804;20.476;2023-06-14T00:30:19;21.27;54.64
68867;SHT30;56451;44.804;20.476;2023-06-14T00:32:46;21.22;54.59
68867;SHT30;56451;44.804;20.476;2023-06-14T00:35:12;21.19;54.68
68867;SHT30;56451;44.804;20.476;2023-06-14T00:37:38;21.13;55.04
68867;SHT30;56451;44.804;20.476;2023-06-14T00:40:06;21.07;55.08
68867;SHT30;56451;44.804;20.476;2023-06-14T00:42:32;21.02;55.30
68867;SHT30;56451;44.804;20.476;2023-06-14T00:44:59;20.98;55.51
68867;SHT30;56451;44.804;20.476;2023-06-14T00:47:25;20.98;55.78
68867;SHT30;56451;44.804;20.476;2023-06-14T00:49:53;20.99;56.00
68867;SHT30;56451;44.804;20.476;2023-06-14T00:52:20;20.99;55.98
68867;SHT30;56451;44.804;20.476;2023-06-14T00:54:47;20.96;56.22
68867;SHT30;56451;44.804;20.476;2023-06-14T00:57:12;20.95;56.31
68867;SHT30;56451;44.804;20.476;2023-06-14T00:59:46;20.93;56.74
68867;SHT30;56451;44.804;20.476;2023-06-14T01:02:13;20.96;57.18
68867;SHT30;56451;44.804;20.476;2023-06-14T01:04:46;20.95;57.61
68867;SHT30;56451;44.804;20.476;2023-06-14T01:10:46;20.90;58.44
68867;SHT30;56451;44.804;20.476;2023-06-14T01:13:37;20.89;58.81
68867;SHT30;56451;44.804;20.476;2023-06-14T01:16:05;20.86;59.01
68867;SHT30;56451;44.804;20.476;2023-06-14T01:18:32;20.81;59.09
68867;SHT30;56451;44.804;20.476;2023-06-14T01:21:01;20.81;59.15
68867;SHT30;56451;44.804;20.476;2023-06-14T01:23:32;20.85;58.38
68867;SHT30;56451;44.804;20.476;2023-06-14T01:25:59;20.88;58.18
68867;SHT30;56451;44.804;20.476;2023-06-14T01:28:27;20.90;58.00
68867;SHT30;56451;44.804;20.476;2023-06-14T01:31:00;20.92;57.74
68867;SHT30;56451;44.804;20.476;2023-06-14T01:33:31;20.88;57.87
68867;SHT30;56451;44.804;20.476;2023-06-14T01:35:58;20.85;57.82
68867;SHT30;56451;44.804;20.476;2023-06-14T01:38:26;20.85;57.80
68867;SHT30;56451;44.804;20.476;2023-06-14T01:40:55;20.83;58.14
68867;SHT30;56451;44.804;20.476;2023-06-14T01:43:25;20.82;58.25
68867;SHT30;56451;44.804;20.476;2023-06-14T01:45:53;20.78;58.12
68867;SHT30;56451;44.804;20.476;2023-06-14T01:48:22;20.79;58.21
68867;SHT30;56451;44.804;20.476;2023-06-14T01:50:52;20.76;58.25
68867;SHT30;56451;44.804;20.476;2023-06-14T01:53:19;20.79;58.45
68867;SHT30;56451;44.804;20.476;2023-06-14T01:55:46;20.76;58.46
68867;SHT30;56451;44.804;20.476;2023-06-14T01:58:15;20.71;58.36
68867;SHT30;56451;44.804;20.476;2023-06-14T02:00:43;20.69;58.50
68867;SHT30;56451;44.804;20.476;2023-06-14T02:03:11;20.64;58.63
68867;SHT30;56451;44.804;20.476;2023-06-14T02:05:38;20.64;58.83
68867;SHT30;56451;44.804;20.476;2023-06-14T02:08:06;20.62;59.04
68867;SHT30;56451;44.804;20.476;2023-06-14T02:10:32;20.62;59.13
68867;SHT30;56451;44.804;20.476;2023-06-14T02:12:59;20.58;59.24
68867;SHT30;56451;44.804;20.476;2023-06-14T02:15:25;20.58;59.33
68867;SHT30;56451;44.804;20.476;2023-06-14T02:18:01;20.59;59.56
68867;SHT30;56451;44.804;20.476;2023-06-14T02:20:27;20.61;59.76
68867;SHT30;56451;44.804;20.476;2023-06-14T02:22:54;20.58;59.93
68867;SHT30;56451;44.804;20.476;2023-06-14T02:25:20;20.56;59.96
68867;SHT30;56451;44.804;20.476;2023-06-14T02:27:46;20.58;60.04
68867;SHT30;56451;44.804;20.476;2023-06-14T02:30:12;20.52;60.27
68867;SHT30;56451;44.804;20.476;2023-06-14T02:32:38;20.51;60.48
68867;SHT30;56451;44.804;20.476;2023-06-14T02:35:06;20.52;60.54
68867;SHT30;56451;44.804;20.476;2023-06-14T02:37:34;20.49;60.61
68867;SHT30;56451;44.804;20.476;2023-06-14T02:40:01;20.48;60.75
68867;SHT30;56451;44.804;20.476;2023-06-14T02:42:26;20.48;60.88
68867;SHT30;56451;44.804;20.476;2023-06-14T02:44:52;20.47;60.98
68867;SHT30;56451;44.804;20.476;2023-06-14T02:47:18;20.45;61.09
68867;SHT30;56451;44.804;20.476;2023-06-14T02:49:44;20.44;61.31
68867;SHT30;56451;44.804;20.476;2023-06-14T02:52:13;20.44;61.48
68867;SHT30;56451;44.804;20.476;2023-06-14T02:54:39;20.42;61.61
68867;SHT30;56451;44.804;20.476;2023-06-14T02:57:06;20.41;61.57
68867;SHT30;56451;44.804;20.476;2023-06-14T02:59:37;20.35;61.65
68867;SHT30;56451;44.804;20.476;2023-06-14T03:02:04;20.35;61.92
68867;SHT30;56451;44.804;20.476;2023-06-14T03:04:31;20.34;61.99
68867;SHT30;56451;44.804;20.476;2023-06-14T03:07:06;20.31;62.17
68867;SHT30;56451;44.804;20.476;2023-06-14T03:09:36;20.31;62.29
68867;SHT30;56451;44.804;20.476;2023-06-14T03:12:04;20.35;62.84
68867;SHT30;56451;44.804;20.476;2023-06-14T03:14:32;20.35;63.48
68867;SHT30;56451;44.804;20.476;2023-06-14T03:16:58;20.35;63.56
68867;SHT30;56451;44.804;20.476;2023-06-14T03:19:24;20.34;63.79
68867;SHT30;56451;44.804;20.476;2023-06-14T03:21:53;20.35;63.83
68867;SHT30;56451;44.804;20.476;2023-06-14T03:24:24;20.37;63.92
68867;SHT30;56451;44.804;20.476;2023-06-14T03:26:49;20.35;63.93
68867;SHT30;56451;44.804;20.476;2023-06-14T03:29:16;20.35;63.89
68867;SHT30;56451;44.804;20.476;2023-06-14T03:31:57;20.37;63.91
68867;SHT30;56451;44.804;20.476;2023-06-14T03:34:24;20.37;63.90
68867;SHT30;56451;44.804;20.476;2023-06-14T03:36:50;20.38;64.01
68867;SHT30;56451;44.804;20.476;2023-06-14T03:39:15;20.38;64.07
68867;SHT30;56451;44.804;20.476;2023-06-14T03:41:42;20.38;64.19
68867;SHT30;56451;44.804;20.476;2023-06-14T03:44:08;20.48;64.20
68867;SHT30;56451;44.804;20.476;2023-06-14T03:46:34;20.41;64.34
68867;SHT30;56451;44.804;20.476;2023-06-14T03:49:00;20.47;64.46
68867;SHT30;56451;44.804;20.476;2023-06-14T03:51:26;20.47;64.54
68867;SHT30;56451;44.804;20.476;2023-06-14T03:53:52;20.42;64.77
68867;SHT30;56451;44.804;20.476;2023-06-14T03:56:18;20.41;64.86
68867;SHT30;56451;44.804;20.476;2023-06-14T03:58:44;20.44;64.89
68867;SHT30;56451;44.804;20.476;2023-06-14T04:01:10;20.48;64.78
68867;SHT30;56451;44.804;20.476;2023-06-14T04:03:38;20.52;64.91
68867;SHT30;56451;44.804;20.476;2023-06-14T04:06:06;20.52;64.84
68867;SHT30;56451;44.804;20.476;2023-06-14T04:08:33;20.58;64.80
68867;SHT30;56451;44.804;20.476;2023-06-14T04:11:00;20.59;64.85
68867;SHT30;56451;44.804;20.476;2023-06-14T04:13:26;20.61;64.89
68867;SHT30;56451;44.804;20.476;2023-06-14T04:15:53;20.68;64.82
68867;SHT30;56451;44.804;20.476;2023-06-14T04:18:24;20.76;64.30
68867;SHT30;56451;44.804;20.476;2023-06-14T04:20:51;20.81;64.06
68867;SHT30;56451;44.804;20.476;2023-06-14T04:23:19;20.82;63.95
68867;SHT30;56451;44.804;20.476;2023-06-14T04:25:45;20.85;63.86
68867;SHT30;56451;44.804;20.476;2023-06-14T04:28:13;20.88;63.78
68867;SHT30;56451;44.804;20.476;2023-06-14T04:30:42;20.89;63.59
68867;SHT30;56451;44.804;20.476;2023-06-14T04:33:08;20.93;63.39
68867;SHT30;56451;44.804;20.476;2023-06-14T04:35:36;20.96;63.22
68867;SHT30;56451;44.804;20.476;2023-06-14T04:38:04;21.00;63.06
68867;SHT30;56451;44.804;20.476;2023-06-14T04:40:32;21.06;62.95
68867;SHT30;56451;44.804;20.476;2023-06-14T04:42:59;21.11;62.83
68867;SHT30;56451;44.804;20.476;2023-06-14T04:45:25;21.10;62.84
68867;SHT30;56451;44.804;20.476;2023-06-14T04:47:59;21.19;62.59
68867;SHT30;56451;44.804;20.476;2023-06-14T04:50:27;21.20;62.44
68867;SHT30;56451;44.804;20.476;2023-06-14T04:52:55;21.23;62.40
68867;SHT30;56451;44.804;20.476;2023-06-14T04:55:22;21.26;62.39
68867;SHT30;56451;44.804;20.476;2023-06-14T04:57:48;21.29;62.01
68867;SHT30;56451;44.804;20.476;2023-06-14T05:00:14;21.37;61.71
68867;SHT30;56451;44.804;20.476;2023-06-14T05:02:41;21.41;61.36
68867;SHT30;56451;44.804;20.476;2023-06-14T05:05:07;21.43;60.96
68867;SHT30;56451;44.804;20.476;2023-06-14T05:07:33;21.47;60.73
68867;SHT30;56451;44.804;20.476;2023-06-14T05:10:02;21.55;60.81
68867;SHT30;56451;44.804;20.476;2023-06-14T05:12:28;21.54;60.44
68867;SHT30;56451;44.804;20.476;2023-06-14T05:14:54;21.58;60.10
68867;SHT30;56451;44.804;20.476;2023-06-14T05:17:22;21.61;59.57
68867;SHT30;56451;44.804;20.476;2023-06-14T05:19:48;21.61;59.19
68867;SHT30;56451;44.804;20.476;2023-06-14T05:22:14;21.62;59.01
68867;SHT30;56451;44.804;20.476;2023-06-14T05:24:40;21.71;58.45
68867;SHT30;56451;44.804;20.476;2023-06-14T05:27:07;21.75;58.10
68867;SHT30;56451;44.804;20.476;2023-06-14T05:29:33;21.79;57.97
68867;SHT30;56451;44.804;20.476;2023-06-14T05:31:59;21.84;57.67
68867;SHT30;56451;44.804;20.476;2023-06-14T05:34:25;21.91;57.05
68867;SHT30;56451;44.804;20.476;2023-06-14T05:36:51;21.98;56.73
68867;SHT30;56451;44.804;20.476;2023-06-14T05:39:17;21.99;56.41
68867;SHT30;56451;44.804;20.476;2023-06-14T05:41:43;22.01;56.27
68867;SHT30;56451;44.804;20.476;2023-06-14T05:44:09;22.05;55.81
68867;SHT30;56451;44.804;20.476;2023-06-14T05:46:35;22.13;55.37
68867;SHT30;56451;44.804;20.476;2023-06-14T05:49:01;22.13;54.75
68867;SHT30;56451;44.804;20.476;2023-06-14T05:51:27;22.13;53.79
68867;SHT30;56451;44.804;20.476;2023-06-14T05:53:53;22.15;53.66
68867;SHT30;56451;44.804;20.476;2023-06-14T05:56:20;22.16;53.14
68867;SHT30;56451;44.804;20.476;2023-06-14T05:58:46;22.19;52.31
68867;SHT30;56451;44.804;20.476;2023-06-14T06:01:13;22.25;51.03
68867;SHT30;56451;44.804;20.476;2023-06-14T06:03:39;22.26;50.21
68867;SHT30;56451;44.804;20.476;2023-06-14T06:06:05;22.26;50.55
68867;SHT30;56451;44.804;20.476;2023-06-14T06:08:31;22.32;50.85
68867;SHT30;56451;44.804;20.476;2023-06-14T06:10:58;22.35;50.74
68867;SHT30;56451;44.804;20.476;2023-06-14T06:13:24;22.39;50.19
68867;SHT30;56451;44.804;20.476;2023-06-14T06:15:49;22.40;49.57
68867;SHT30;56451;44.804;20.476;2023-06-14T06:18:16;22.43;49.59
68867;SHT30;56451;44.804;20.476;2023-06-14T06:20:42;22.52;50.39
68867;SHT30;56451;44.804;20.476;2023-06-14T06:23:09;22.57;51.43
68867;SHT30;56451;44.804;20.476;2023-06-14T06:25:35;22.68;51.24
68867;SHT30;56451;44.804;20.476;2023-06-14T06:28:01;22.77;50.83
68867;SHT30;56451;44.804;20.476;2023-06-14T06:30:27;22.87;50.50
68867;SHT30;56451;44.804;20.476;2023-06-14T06:32:53;22.97;50.37
68867;SHT30;56451;44.804;20.476;2023-06-14T06:35:21;23.01;50.09
68867;SHT30;56451;44.804;20.476;2023-06-14T06:37:46;23.11;50.23
68867;SHT30;56451;44.804;20.476;2023-06-14T06:40:13;23.21;50.59
68867;SHT30;56451;44.804;20.476;2023-06-14T06:42:39;23.31;49.17
68867;SHT30;56451;44.804;20.476;2023-06-14T06:45:05;23.39;49.89
68867;SHT30;56451;44.804;20.476;2023-06-14T06:47:32;23.52;49.12
68867;SHT30;56451;44.804;20.476;2023-06-14T06:49:58;23.58;49.09
68867;SHT30;56451;44.804;20.476;2023-06-14T06:52:24;23.60;48.24
68867;SHT30;56451;44.804;20.476;2023-06-14T06:54:50;23.67;48.07
68867;SHT30;56451;44.804;20.476;2023-06-14T06:57:20;23.74;48.18
68867;SHT30;56451;44.804;20.476;2023-06-14T06:59:49;23.80;48.39
68867;SHT30;56451;44.804;20.476;2023-06-14T07:02:16;23.86;48.02
68867;SHT30;56451;44.804;20.476;2023-06-14T07:04:42;23.90;47.00
68867;SHT30;56451;44.804;20.476;2023-06-14T07:07:08;23.86;45.46
68867;SHT30;56451;44.804;20.476;2023-06-14T07:09:35;23.87;46.04
68867;SHT30;56451;44.804;20.476;2023-06-14T07:12:01;23.92;46.15
68867;SHT30;56451;44.804;20.476;2023-06-14T07:14:27;23.92;46.26
68867;SHT30;56451;44.804;20.476;2023-06-14T07:16:55;23.94;45.86
68867;SHT30;56451;44.804;20.476;2023-06-14T07:19:21;23.93;45.79
68867;SHT30;56451;44.804;20.476;2023-06-14T07:21:47;24.01;46.01
68867;SHT30;56451;44.804;20.476;2023-06-14T07:24:13;23.97;45.99
68867;SHT30;56451;44.804;20.476;2023-06-14T07:26:39;23.97;45.54
68867;SHT30;56451;44.804;20.476;2023-06-14T07:29:05;23.93;45.00
68867;SHT30;56451;44.804;20.476;2023-06-14T07:31:31;23.93;45.18
68867;SHT30;56451;44.804;20.476;2023-06-14T07:33:57;23.94;45.67
68867;SHT30;56451;44.804;20.476;2023-06-14T07:36:23;23.94;45.40
68867;SHT30;56451;44.804;20.476;2023-06-14T07:38:49;23.96;45.70
68867;SHT30;56451;44.804;20.476;2023-06-14T07:41:16;23.99;45.69
68867;SHT30;56451;44.804;20.476;2023-06-14T07:43:42;23.96;46.14
68867;SHT30;56451;44.804;20.476;2023-06-14T07:46:07;24.01;46.28
68867;SHT30;56451;44.804;20.476;2023-06-14T07:48:34;24.04;46.13
68867;SHT30;56451;44.804;20.476;2023-06-14T07:51:00;24.07;45.26
68867;SHT30;56451;44.804;20.476;2023-06-14T07:53:26;24.11;45.15
68867;SHT30;56451;44.804;20.476;2023-06-14T07:55:52;24.18;44.59
68867;SHT30;56451;44.804;20.476;2023-06-14T07:58:18;24.21;44.35
68867;SHT30;56451;44.804;20.476;2023-06-14T08:00:44;24.28;44.14
68867;SHT30;56451;44.804;20.476;2023-06-14T08:03:11;24.34;44.31
68867;SHT30;56451;44.804;20.476;2023-06-14T08:05:38;24.41;44.36
68867;SHT30;56451;44.804;20.476;2023-06-14T08:08:04;24.47;44.84
68867;SHT30;56451;44.804;20.476;2023-06-14T08:10:30;24.49;45.56
68867;SHT30;56451;44.804;20.476;2023-06-14T08:12:56;24.57;44.83
68867;SHT30;56451;44.804;20.476;2023-06-14T08:15:22;24.62;44.83
68867;SHT30;56451;44.804;20.476;2023-06-14T08:17:48;24.66;44.79
68867;SHT30;56451;44.804;20.476;2023-06-14T08:20:14;24.75;45.10
68867;SHT30;56451;44.804;20.476;2023-06-14T08:22:42;24.82;44.30
68867;SHT30;56451;44.804;20.476;2023-06-14T08:25:08;24.86;45.06
68867;SHT30;56451;44.804;20.476;2023-06-14T08:27:35;24.86;44.31
68867;SHT30;56451;44.804;20.476;2023-06-14T08:30:01;24.87;44.16
68867;SHT30;56451;44.804;20.476;2023-06-14T08:32:29;24.93;43.50
68867;SHT30;56451;44.804;20.476;2023-06-14T08:34:55;24.93;44.24
68867;SHT30;56451;44.804;20.476;2023-06-14T08:37:21;24.99;44.08
68867;SHT30;56451;44.804;20.476;2023-06-14T08:39:48;25.02;44.42
68867;SHT30;56451;44.804;20.476;2023-06-14T08:42:14;25.03;44.19
68867;SHT30;56451;44.804;20.476;2023-06-14T08:44:41;25.13;45.12
68867;SHT30;56451;44.804;20.476;2023-06-14T08:47:08;25.17;45.46
68867;SHT30;56451;44.804;20.476;2023-06-14T08:49:37;25.20;45.04
68867;SHT30;56451;44.804;20.476;2023-06-14T08:52:05;25.28;43.62
68867;SHT30;56451;44.804;20.476;2023-06-14T08:54:33;25.34;44.13
68867;SHT30;56451;44.804;20.476;2023-06-14T08:57:03;25.38;43.69
68867;SHT30;56451;44.804;20.476;2023-06-14T08:59:32;25.41;44.17
68867;SHT30;56451;44.804;20.476;2023-06-14T09:02:05;25.48;44.72
68867;SHT30;56451;44.804;20.476;2023-06-14T09:04:32;25.50;43.74
68867;SHT30;56451;44.804;20.476;2023-06-14T09:06:59;25.54;43.54
68867;SHT30;56451;44.804;20.476;2023-06-14T09:09:26;25.54;43.22
68867;SHT30;56451;44.804;20.476;2023-06-14T09:11:52;25.60;44.07
68867;SHT30;56451;44.804;20.476;2023-06-14T09:14:18;25.61;44.52
68867;SHT30;56451;44.804;20.476;2023-06-14T09:16:44;25.65;43.99
68867;SHT30;56451;44.804;20.476;2023-06-14T09:19:31;25.70;44.09
68867;SHT30;56451;44.804;20.476;2023-06-14T09:21:57;25.74;43.76
68867;SHT30;56451;44.804;20.476;2023-06-14T09:24:25;25.77;44.21
68867;SHT30;56451;44.804;20.476;2023-06-14T09:26:51;25.75;42.63
68867;SHT30;56451;44.804;20.476;2023-06-14T09:29:18;25.74;42.14
68867;SHT30;56451;44.804;20.476;2023-06-14T09:31:46;25.74;42.89
68867;SHT30;56451;44.804;20.476;2023-06-14T09:34:12;25.78;42.73
68867;SHT30;56451;44.804;20.476;2023-06-14T09:36:39;25.78;42.46
68867;SHT30;56451;44.804;20.476;2023-06-14T09:39:06;25.81;41.89
68867;SHT30;56451;44.804;20.476;2023-06-14T09:41:38;25.85;42.30
68867;SHT30;56451;44.804;20.476;2023-06-14T09:44:07;25.84;41.70
68867;SHT30;56451;44.804;20.476;2023-06-14T09:46:34;25.82;42.24
68867;SHT30;56451;44.804;20.476;2023-06-14T09:49:02;25.82;42.67
68867;SHT30;56451;44.804;20.476;2023-06-14T09:51:28;25.81;42.41
68867;SHT30;56451;44.804;20.476;2023-06-14T09:54:02;25.86;42.68
68867;SHT30;56451;44.804;20.476;2023-06-14T09:56:45;25.86;42.24
68867;SHT30;56451;44.804;20.476;2023-06-14T09:59:12;25.86;41.80
68867;SHT30;56451;44.804;20.476;2023-06-14T10:01:42;25.86;41.72
68867;SHT30;56451;44.804;20.476;2023-06-14T10:04:10;25.88;41.02
68867;SHT30;56451;44.804;20.476;2023-06-14T10:06:38;25.88;41.22
68867;SHT30;56451;44.804;20.476;2023-06-14T10:09:07;25.89;41.84
68867;SHT30;56451;44.804;20.476;2023-06-14T10:11:35;25.86;42.20
68867;SHT30;56451;44.804;20.476;2023-06-14T10:14:02;25.88;42.01
68867;SHT30;56451;44.804;20.476;2023-06-14T10:17:03;25.85;42.39
68867;SHT30;56451;44.804;20.476;2023-06-14T10:19:48;25.86;41.19
68867;SHT30;56451;44.804;20.476;2023-06-14T10:22:21;25.84;41.28
68867;SHT30;56451;44.804;20.476;2023-06-14T10:24:50;25.86;41.19
68867;SHT30;56451;44.804;20.476;2023-06-14T10:27:17;25.82;41.97
68867;SHT30;56451;44.804;20.476;2023-06-14T10:32:25;25.85;42.38
68867;SHT30;56451;44.804;20.476;2023-06-14T10:34:55;25.86;42.37
68867;SHT30;56451;44.804;20.476;2023-06-14T10:37:21;25.86;42.77
68867;SHT30;56451;44.804;20.476;2023-06-14T10:39:48;25.92;42.29
68867;SHT30;56451;44.804;20.476;2023-06-14T10:42:15;25.99;42.02
68867;SHT30;56451;44.804;20.476;2023-06-14T10:44:42;26.03;41.77
68867;SHT30;56451;44.804;20.476;2023-06-14T10:47:28;26.11;41.81
68867;SHT30;56451;44.804;20.476;2023-06-14T10:52:28;26.15;41.71
68867;SHT30;56451;44.804;20.476;2023-06-14T10:55:40;26.26;41.84
68867;SHT30;56451;44.804;20.476;2023-06-14T10:57:58;26.25;41.02
68867;SHT30;56451;44.804;20.476;2023-06-14T11:00:27;26.28;40.68
68867;SHT30;56451;44.804;20.476;2023-06-14T11:05:50;26.19;40.12
68867;SHT30;56451;44.804;20.476;2023-06-14T11:10:56;26.19;41.80
68867;SHT30;56451;44.804;20.476;2023-06-14T11:13:25;26.23;41.37
68867;SHT30;56451;44.804;20.476;2023-06-14T11:15:51;26.37;40.92
68867;SHT30;56451;44.804;20.476;2023-06-14T11:18:21;26.44;40.48
68867;SHT30;56451;44.804;20.476;2023-06-14T11:20:50;26.53;41.69
68867;SHT30;56451;44.804;20.476;2023-06-14T11:23:16;26.61;40.62
68867;SHT30;56451;44.804;20.476;2023-06-14T11:25:42;26.65;40.64
68867;SHT30;56451;44.804;20.476;2023-06-14T11:28:08;26.71;40.70
68867;SHT30;56451;44.804;20.476;2023-06-14T11:30:34;26.78;40.84
68867;SHT30;56451;44.804;20.476;2023-06-14T11:33:00;26.83;39.37
68867;SHT30;56451;44.804;20.476;2023-06-14T11:35:26;26.84;39.80
68867;SHT30;56451;44.804;20.476;2023-06-14T11:37:55;26.87;38.42
68867;SHT30;56451;44.804;20.476;2023-06-14T11:40:26;26.80;39.78
68867;SHT30;56451;44.804;20.476;2023-06-14T11:43:01;26.71;40.62
68867;SHT30;56451;44.804;20.476;2023-06-14T11:45:28;26.71;38.87
68867;SHT30;56451;44.804;20.476;2023-06-14T11:47:55;26.71;38.42
68867;SHT30;56451;44.804;20.476;2023-06-14T11:50:25;26.60;38.07
68867;SHT30;56451;44.804;20.476;2023-06-14T11:52:56;26.53;38.29
68867;SHT30;56451;44.804;20.476;2023-06-14T11:55:23;26.50;38.86
68867;SHT30;56451;44.804;20.476;2023-06-14T11:57:50;26.54;38.16
68867;SHT30;56451;44.804;20.476;2023-06-14T12:00:16;26.57;37.66
68867;SHT30;56451;44.804;20.476;2023-06-14T12:02:51;26.51;37.46
68867;SHT30;56451;44.804;20.476;2023-06-14T12:05:20;26.50;37.45
68867;SHT30;56451;44.804;20.476;2023-06-14T12:07:47;26.50;36.95
68867;SHT30;56451;44.804;20.476;2023-06-14T12:10:14;26.44;36.12
68867;SHT30;56451;44.804;20.476;2023-06-14T12:12:41;26.29;36.62
68867;SHT30;56451;44.804;20.476;2023-06-14T12:15:09;26.19;36.92
68867;SHT30;56451;44.804;20.476;2023-06-14T12:17:37;26.08;37.13
68867;SHT30;56451;44.804;20.476;2023-06-14T12:20:09;25.91;37.42
68867;SHT30;56451;44.804;20.476;2023-06-14T12:22:54;25.75;37.60
68867;SHT30;56451;44.804;20.476;2023-06-14T12:25:33;25.77;38.18
68867;SHT30;56451;44.804;20.476;2023-06-14T12:28:07;25.86;38.11
68867;SHT30;56451;44.804;20.476;2023-06-14T12:30:35;25.95;37.53
68867;SHT30;56451;44.804;20.476;2023-06-14T12:33:02;25.95;37.76
68867;SHT30;56451;44.804;20.476;2023-06-14T12:35:28;25.96;37.90
68867;SHT30;56451;44.804;20.476;2023-06-14T12:37:55;25.98;37.85
68867;SHT30;56451;44.804;20.476;2023-06-14T12:40:22;25.99;37.73
68867;SHT30;56451;44.804;20.476;2023-06-14T12:42:48;26.06;37.80
68867;SHT30;56451;44.804;20.476;2023-06-14T12:45:14;26.06;37.79
68867;SHT30;56451;44.804;20.476;2023-06-14T12:47:40;26.09;37.95
68867;SHT30;56451;44.804;20.476;2023-06-14T12:50:07;26.16;37.83
68867;SHT30;56451;44.804;20.476;2023-06-14T12:52:33;26.22;38.22
68867;SHT30;56451;44.804;20.476;2023-06-14T12:55:03;26.35;37.66
68867;SHT30;56451;44.804;20.476;2023-06-14T12:57:29;26.44;37.90
68867;SHT30;56451;44.804;20.476;2023-06-14T12:59:55;26.47;37.41
68867;SHT30;56451;44.804;20.476;2023-06-14T13:02:21;26.53;37.68
68867;SHT30;56451;44.804;20.476;2023-06-14T13:04:49;26.67;37.65
68867;SHT30;56451;44.804;20.476;2023-06-14T13:07:16;26.73;36.76
68867;SHT30;56451;44.804;20.476;2023-06-14T13:09:42;26.74;36.30
68867;SHT30;56451;44.804;20.476;2023-06-14T13:12:10;26.61;36.73
68867;SHT30;56451;44.804;20.476;2023-06-14T13:14:39;26.50;37.20
68867;SHT30;56451;44.804;20.476;2023-06-14T13:17:08;26.49;37.47
68867;SHT30;56451;44.804;20.476;2023-06-14T13:19:34;26.54;37.39
68867;SHT30;56451;44.804;20.476;2023-06-14T13:22:00;26.63;36.95
68867;SHT30;56451;44.804;20.476;2023-06-14T13:24:27;26.71;36.90
68867;SHT30;56451;44.804;20.476;2023-06-14T13:26:53;26.71;37.05
68867;SHT30;56451;44.804;20.476;2023-06-14T13:29:20;26.74;37.04
68867;SHT30;56451;44.804;20.476;2023-06-14T13:31:46;26.71;36.93
68867;SHT30;56451;44.804;20.476;2023-06-14T13:34:12;26.74;37.51
68867;SHT30;56451;44.804;20.476;2023-06-14T13:36:39;26.87;37.49
68867;SHT30;56451;44.804;20.476;2023-06-14T13:39:04;26.91;37.15
68867;SHT30;56451;44.804;20.476;2023-06-14T13:41:31;26.94;36.91
68867;SHT30;56451;44.804;20.476;2023-06-14T13:44:00;27.04;37.18
68867;SHT30;56451;44.804;20.476;2023-06-14T13:46:26;27.15;36.63
68867;SHT30;56451;44.804;20.476;2023-06-14T13:48:52;27.25;36.91
68867;SHT30;56451;44.804;20.476;2023-06-14T13:51:18;27.36;36.05
68867;SHT30;56451;44.804;20.476;2023-06-14T13:53:48;27.31;36.08
68867;SHT30;56451;44.804;20.476;2023-06-14T13:56:15;27.26;36.06
68867;SHT30;56451;44.804;20.476;2023-06-14T13:58:41;27.34;36.31
68867;SHT30;56451;44.804;20.476;2023-06-14T14:01:07;27.36;36.37
68867;SHT30;56451;44.804;20.476;2023-06-14T14:03:34;27.47;36.47
68867;SHT30;56451;44.804;20.476;2023-06-14T14:06:03;27.62;35.83
68867;SHT30;56451;44.804;20.476;2023-06-14T14:08:30;27.70;35.89
68867;SHT30;56451;44.804;20.476;2023-06-14T14:10:56;27.77;35.90
68867;SHT30;56451;44.804;20.476;2023-06-14T14:13:22;27.87;35.49
68867;SHT30;56451;44.804;20.476;2023-06-14T14:15:48;28.00;35.49
68867;SHT30;56451;44.804;20.476;2023-06-14T14:18:18;28.11;35.50
68867;SHT30;56451;44.804;20.476;2023-06-14T14:20:47;28.20;35.26
68867;SHT30;56451;44.804;20.476;2023-06-14T14:23:13;28.29;35.48
68867;SHT30;56451;44.804;20.476;2023-06-14T14:25:40;28.42;35.25
68867;SHT30;56451;44.804;20.476;2023-06-14T14:28:06;28.56;35.59
68867;SHT30;56451;44.804;20.476;2023-06-14T14:30:32;28.62;34.71
68867;SHT30;56451;44.804;20.476;2023-06-14T14:32:59;28.59;34.86
68867;SHT30;56451;44.804;20.476;2023-06-14T14:35:25;28.53;34.91
68867;SHT30;56451;44.804;20.476;2023-06-14T14:37:56;28.61;35.12
68867;SHT30;56451;44.804;20.476;2023-06-14T14:40:24;28.69;35.18
68867;SHT30;56451;44.804;20.476;2023-06-14T14:42:50;28.78;35.28
68867;SHT30;56451;44.804;20.476;2023-06-14T14:45:16;28.90;35.35
68867;SHT30;56451;44.804;20.476;2023-06-14T14:47:42;29.02;35.09
68867;SHT30;56451;44.804;20.476;2023-06-14T14:50:08;29.09;34.98
68867;SHT30;56451;44.804;20.476;2023-06-14T14:52:35;29.02;34.20
68867;SHT30;56451;44.804;20.476;2023-06-14T14:55:01;28.82;34.52
68867;SHT30;56451;44.804;20.476;2023-06-14T14:57:27;28.82;35.03
68867;SHT30;56451;44.804;20.476;2023-06-14T14:59:53;28.86;35.14
68867;SHT30;56451;44.804;20.476;2023-06-14T15:02:19;28.88;34.94
68867;SHT30;56451;44.804;20.476;2023-06-14T15:04:45;28.86;34.54
68867;SHT30;56451;44.804;20.476;2023-06-14T15:07:11;28.82;34.57
68867;SHT30;56451;44.804;20.476;2023-06-14T15:09:38;28.63;34.43
68867;SHT30;56451;44.804;20.476;2023-06-14T15:12:04;28.34;35.01
68867;SHT30;56451;44.804;20.476;2023-06-14T15:14:30;28.17;35.71
68867;SHT30;56451;44.804;20.476;2023-06-14T15:16:56;28.04;36.02
68867;SHT30;56451;44.804;20.476;2023-06-14T15:19:23;27.89;36.29
68867;SHT30;56451;44.804;20.476;2023-06-14T15:21:49;27.74;36.60
68867;SHT30;56451;44.804;20.476;2023-06-14T15:24:15;27.69;36.72
68867;SHT30;56451;44.804;20.476;2023-06-14T15:26:41;27.63;36.38
68867;SHT30;56451;44.804;20.476;2023-06-14T15:29:07;27.46;36.23
68867;SHT30;56451;44.804;20.476;2023-06-14T15:31:33;27.28;36.48